Time;durP1;ratioP1;P1;durP2;ratioP2;P2;SDS_P1;SDS_P2;PMS_P1;PMS_P2;Temp;Humidity;BMP_temperature;BMP_pressure;BME280_temperature;BME280_humidity;BME280_pressure;Samples;Min_cycle;Max_cycle;Signal;HPM_P1;HPM_P2
2022/08/26 00:01:59;;;;;;;30.15;14.40;;;;;;;;;;5097472;28;20047;-79
2022/08/26 00:04:25;;;;;;;35.90;14.60;;;;;;;;;;5081847;28;20193;-80
2022/08/26 00:06:53;;;;;;;41.25;15.60;;;;;;;;;;5084217;28;20080;-82
2022/08/26 00:09:21;;;;;;;46.90;17.58;;;;;;;;;;5079786;28;20040;-80
2022/08/26 00:11:49;;;;;;;36.72;16.63;;;;;;;;;;5095170;28;20127;-80
2022/08/26 00:14:16;;;;;;;35.83;17.25;;;;;;;;;;5099864;28;20052;-79
2022/08/26 00:16:43;;;;;;;33.83;16.38;;;;;;;;;;5095639;28;20048;-80
2022/08/26 00:19:14;;;;;;;31.48;15.95;;;;;;;;;;5100185;28;20047;-80
2022/08/26 00:21:40;;;;;;;40.90;16.90;;;;;;;;;;5105198;28;20104;-80
2022/08/26 00:24:07;;;;;;;32.20;16.52;;;;;;;;;;5106593;28;20058;-82
2022/08/26 00:26:34;;;;;;;33.03;16.25;;;;;;;;;;5108903;28;20040;-81
2022/08/26 00:29:00;;;;;;;36.17;16.42;;;;;;;;;;5108174;28;20047;-79
2022/08/26 00:31:27;;;;;;;42.30;16.85;;;;;;;;;;5089104;28;20077;-79
2022/08/26 00:33:56;;;;;;;31.73;15.07;;;;;;;;;;5099531;28;20055;-79
2022/08/26 00:36:23;;;;;;;30.30;14.77;;;;;;;;;;5078381;28;20130;-79
2022/08/26 00:38:49;;;;;;;30.13;15.38;;;;;;;;;;5099670;28;20079;-81
2022/08/26 00:41:17;;;;;;;32.58;14.63;;;;;;;;;;5105711;28;20054;-79
2022/08/26 00:43:45;;;;;;;38.88;15.80;;;;;;;;;;5103182;28;20048;-80
2022/08/26 00:46:17;;;;;;;36.78;16.50;;;;;;;;;;5098423;28;20054;-80
2022/08/26 00:48:45;;;;;;;51.33;18.02;;;;;;;;;;5095556;28;20080;-80
2022/08/26 00:51:17;;;;;;;50.78;19.38;;;;;;;;;;5097523;28;20051;-79
2022/08/26 00:53:46;;;;;;;38.92;19.35;;;;;;;;;;5097880;28;20071;-79
2022/08/26 00:56:22;;;;;;;40.33;18.67;;;;;;;;;;5097334;28;20120;-81
2022/08/26 00:58:49;;;;;;;37.50;18.33;;;;;;;;;;5096438;28;20123;-81
2022/08/26 01:01:15;;;;;;;39.42;17.17;;;;;;;;;;5098915;28;20048;-81
2022/08/26 01:03:43;;;;;;;46.38;18.60;;;;;;;;;;5098253;28;20044;-82
2022/08/26 01:06:11;;;;;;;39.53;18.45;;;;;;;;;;5111589;28;20059;-79
2022/08/26 01:08:38;;;;;;;37.80;17.85;;;;;;;;;;5101748;28;20133;-83
2022/08/26 01:11:07;;;;;;;40.33;17.15;;;;;;;;;;5116246;28;20048;-81
2022/08/26 01:13:35;;;;;;;39.85;17.60;;;;;;;;;;5118482;28;20035;-81
2022/08/26 01:16:03;;;;;;;40.50;18.55;;;;;;;;;;5111429;28;20125;-79
2022/08/26 01:18:30;;;;;;;41.97;19.35;;;;;;;;;;5104119;28;20052;-80
2022/08/26 01:21:06;;;;;;;39.67;18.98;;;;;;;;;;5102302;28;20080;-79
2022/08/26 01:23:34;;;;;;;39.80;16.80;;;;;;;;;;5102052;28;20066;-81
2022/08/26 01:26:07;;;;;;;33.45;16.67;;;;;;;;;;5103793;28;20682;-80
2022/08/26 01:28:45;;;;;;;38.85;17.13;;;;;;;;;;5106112;28;20040;-79
2022/08/26 01:31:19;;;;;;;32.88;16.92;;;;;;;;;;5107059;28;20074;-81
2022/08/26 01:34:04;;;;;;;35.38;17.92;;;;;;;;;;5107189;28;20048;-82
2022/08/26 01:36:31;;;;;;;36.53;17.38;;;;;;;;;;5108457;28;20044;-80
2022/08/26 01:38:57;;;;;;;40.28;17.85;;;;;;;;;;5108148;28;20036;-80
2022/08/26 01:41:24;;;;;;;34.42;17.52;;;;;;;;;;5107456;28;20036;-82
2022/08/26 01:43:54;;;;;;;37.33;16.73;;;;;;;;;;5101592;28;20052;-79
2022/08/26 01:46:21;;;;;;;40.03;17.40;;;;;;;;;;5096252;28;20082;-80
2022/08/26 01:48:49;;;;;;;36.38;16.45;;;;;;;;;;5097763;28;20062;-80
2022/08/26 01:51:20;;;;;;;33.65;16.58;;;;;;;;;;5099918;28;20080;-79
2022/08/26 01:53:47;;;;;;;32.45;16.90;;;;;;;;;;5096163;28;20066;-79
2022/08/26 01:56:13;;;;;;;32.40;16.58;;;;;;;;;;5092847;28;20040;-79
2022/08/26 01:58:41;;;;;;;32.30;17.10;;;;;;;;;;5080673;28;20068;-78
2022/08/26 02:01:08;;;;;;;28.70;17.20;;;;;;;;;;5064180;28;20563;-79
2022/08/26 02:03:42;;;;;;;35.38;17.15;;;;;;;;;;5081816;28;20056;-80
2022/08/26 02:06:08;;;;;;;33.08;16.63;;;;;;;;;;5084584;28;20067;-80
2022/08/26 02:08:46;;;;;;;29.50;16.40;;;;;;;;;;5086682;28;20048;-80
2022/08/26 02:11:13;;;;;;;30.83;16.77;;;;;;;;;;5092424;28;20040;-81
2022/08/26 02:14:09;;;;;;;38.90;17.83;;;;;;;;;;5107920;28;20052;-80
2022/08/26 02:16:38;;;;;;;35.70;18.77;;;;;;;;;;5079152;28;20628;-81
2022/08/26 02:19:10;;;;;;;35.92;17.50;;;;;;;;;;5108101;28;20375;-81
2022/08/26 02:21:43;;;;;;;41.97;21.70;;;;;;;;;;5108525;28;20056;-80
2022/08/26 02:24:11;;;;;;;43.58;22.25;;;;;;;;;;5104367;28;20040;-80
2022/08/26 02:26:37;;;;;;;41.00;21.08;;;;;;;;;;5101653;28;20048;-79
2022/08/26 02:29:06;;;;;;;43.58;22.17;;;;;;;;;;5099821;28;20044;-80
2022/08/26 02:31:32;;;;;;;40.22;19.83;;;;;;;;;;5105812;28;20044;-80
2022/08/26 02:34:11;;;;;;;38.00;19.80;;;;;;;;;;5105206;28;20051;-79
2022/08/26 02:36:38;;;;;;;36.13;19.20;;;;;;;;;;5106299;28;20044;-79
2022/08/26 02:39:05;;;;;;;37.80;19.13;;;;;;;;;;5104317;28;20048;-79
2022/08/26 02:41:32;;;;;;;41.53;19.15;;;;;;;;;;5102572;28;20097;-79
2022/08/26 02:43:59;;;;;;;41.33;18.80;;;;;;;;;;5102220;28;20052;-80
2022/08/26 02:46:25;;;;;;;34.03;19.40;;;;;;;;;;5102595;28;20051;-79
2022/08/26 02:48:55;;;;;;;39.42;20.65;;;;;;;;;;5100229;28;20048;-78
2022/08/26 02:51:22;;;;;;;42.10;19.50;;;;;;;;;;5100282;28;20044;-80
2022/08/26 02:53:48;;;;;;;41.45;19.20;;;;;;;;;;5099485;28;20056;-79
2022/08/26 02:56:16;;;;;;;48.60;20.25;;;;;;;;;;5086991;28;20056;-79
2022/08/26 02:58:42;;;;;;;30.10;18.02;;;;;;;;;;5077652;28;20052;-80
2022/08/26 03:01:28;;;;;;;33.40;18.05;;;;;;;;;;5077167;28;20060;-82
2022/08/26 03:03:56;;;;;;;;;;;;;;;;;;5071267;28;20127;-79
2022/08/26 03:06:23;;;;;;;42.50;18.33;;;;;;;;;;5070923;28;19921;-78
2022/08/26 03:08:51;;;;;;;37.45;18.45;;;;;;;;;;5071437;28;20068;-79
2022/08/26 03:11:17;;;;;;;34.45;18.08;;;;;;;;;;5093401;28;20032;-83
2022/08/26 03:13:45;;;;;;;38.13;19.17;;;;;;;;;;5106820;28;20044;-79
2022/08/26 03:16:12;;;;;;;40.65;21.00;;;;;;;;;;5106435;28;20055;-81
2022/08/26 03:18:38;;;;;;;38.72;19.55;;;;;;;;;;5104673;28;20046;-80
2022/08/26 03:21:06;;;;;;;36.63;18.95;;;;;;;;;;5104720;28;20095;-82
2022/08/26 03:23:33;;;;;;;37.60;19.10;;;;;;;;;;5105550;28;20072;-80
2022/08/26 03:26:00;;;;;;;37.38;19.48;;;;;;;;;;5107095;28;20074;-81
2022/08/26 03:28:27;;;;;;;41.25;19.17;;;;;;;;;;5105036;28;20047;-82
2022/08/26 03:30:53;;;;;;;46.88;19.98;;;;;;;;;;5107766;28;20067;-80
2022/08/26 03:33:21;;;;;;;40.40;18.45;;;;;;;;;;5105319;28;20052;-80
2022/08/26 03:35:47;;;;;;;38.63;19.30;;;;;;;;;;5110340;28;20051;-80
2022/08/26 03:38:16;;;;;;;39.47;18.80;;;;;;;;;;5109716;28;20048;-80
2022/08/26 03:40:43;;;;;;;39.55;21.27;;;;;;;;;;5110649;28;20056;-80
2022/08/26 03:43:10;;;;;;;40.67;19.52;;;;;;;;;;5111100;28;20075;-81
2022/08/26 03:45:37;;;;;;;31.83;18.10;;;;;;;;;;5111954;28;20073;-80
2022/08/26 03:48:04;;;;;;;34.83;19.15;;;;;;;;;;5110702;28;20153;-80
2022/08/26 03:50:31;;;;;;;32.35;18.38;;;;;;;;;;5111924;28;20071;-79
2022/08/26 03:53:00;;;;;;;35.53;19.00;;;;;;;;;;5101520;28;20049;-79
2022/08/26 03:55:30;;;;;;;32.22;19.30;;;;;;;;;;5097930;28;20056;-80
2022/08/26 03:57:58;;;;;;;34.38;18.02;;;;;;;;;;5085811;28;20044;-80
2022/08/26 04:00:24;;;;;;;28.48;17.73;;;;;;;;;;5086987;28;20052;-80
2022/08/26 04:02:51;;;;;;;34.78;17.92;;;;;;;;;;5080657;28;20099;-80
2022/08/26 04:05:20;;;;;;;36.30;17.73;;;;;;;;;;5086170;28;20044;-80
2022/08/26 04:07:47;;;;;;;33.47;18.35;;;;;;;;;;5088353;28;20072;-82
2022/08/26 04:10:16;;;;;;;35.30;18.50;;;;;;;;;;5086023;28;20032;-81
2022/08/26 04:12:45;;;;;;;27.30;17.35;;;;;;;;;;5085565;28;20067;-81
2022/08/26 04:15:14;;;;;;;30.58;17.30;;;;;;;;;;5087689;28;20052;-81
2022/08/26 04:17:40;;;;;;;37.08;18.23;;;;;;;;;;5092134;28;20043;-82
2022/08/26 04:20:07;;;;;;;34.53;18.52;;;;;;;;;;5089508;28;20492;-80
2022/08/26 04:22:34;;;;;;;31.00;17.85;;;;;;;;;;5089949;28;20053;-81
2022/08/26 04:25:01;;;;;;;32.42;18.50;;;;;;;;;;5089836;28;20049;-80
2022/08/26 04:27:27;;;;;;;32.65;18.92;;;;;;;;;;5080576;28;20539;-78
2022/08/26 04:29:54;;;;;;;33.75;18.73;;;;;;;;;;5094864;28;20047;-82
2022/08/26 04:32:20;;;;;;;27.95;17.73;;;;;;;;;;5095783;28;20045;-83
2022/08/26 04:34:47;;;;;;;34.00;18.20;;;;;;;;;;5095144;28;20047;-81
2022/08/26 04:37:13;;;;;;;28.00;16.45;;;;;;;;;;5086154;28;20416;-80
2022/08/26 04:39:40;;;;;;;34.40;17.27;;;;;;;;;;5085366;28;20040;-80
2022/08/26 04:42:06;;;;;;;36.97;15.73;;;;;;;;;;5084772;28;20128;-79
2022/08/26 04:44:34;;;;;;;27.38;13.88;;;;;;;;;;5076822;28;20090;-79
2022/08/26 04:47:01;;;;;;;27.75;13.30;;;;;;;;;;5081519;28;20044;-80
2022/08/26 04:49:28;;;;;;;33.47;15.35;;;;;;;;;;5081312;28;20116;-81
2022/08/26 04:52:01;;;;;;;29.60;14.02;;;;;;;;;;5083438;28;20074;-80
2022/08/26 04:54:27;;;;;;;28.95;14.60;;;;;;;;;;5089473;28;20068;-80
2022/08/26 04:56:56;;;;;;;25.33;13.82;;;;;;;;;;5098199;28;20039;-80
2022/08/26 04:59:23;;;;;;;32.22;17.17;;;;;;;;;;5111255;28;20428;-80
2022/08/26 05:01:51;;;;;;;30.75;16.08;;;;;;;;;;5102541;28;20052;-80
2022/08/26 05:04:18;;;;;;;30.63;15.10;;;;;;;;;;5103082;28;20048;-83
2022/08/26 05:06:46;;;;;;;35.45;15.45;;;;;;;;;;5114351;28;20081;-81
2022/08/26 05:09:13;;;;;;;25.50;15.43;;;;;;;;;;5110029;28;20062;-81
2022/08/26 05:11:40;;;;;;;30.13;13.98;;;;;;;;;;5096820;28;20055;-82
2022/08/26 05:14:07;;;;;;;30.65;14.88;;;;;;;;;;5090243;28;20045;-82
2022/08/26 05:16:33;;;;;;;28.60;14.68;;;;;;;;;;5093974;28;20101;-84
2022/08/26 05:19:00;;;;;;;30.48;13.88;;;;;;;;;;5093225;28;20045;-84
2022/08/26 05:21:29;;;;;;;25.52;14.43;;;;;;;;;;5088903;28;20056;-83
2022/08/26 05:23:55;;;;;;;23.65;15.50;;;;;;;;;;5090794;28;20048;-83
2022/08/26 05:26:23;;;;;;;29.55;17.63;;;;;;;;;;5089406;28;20192;-85
2022/08/26 05:28:51;;;;;;;28.92;17.85;;;;;;;;;;5090163;28;20049;-83
2022/08/26 05:31:22;;;;;;;28.42;17.23;;;;;;;;;;5091688;28;20064;-82
2022/08/26 05:33:49;;;;;;;34.50;18.13;;;;;;;;;;5082961;28;20080;-82
2022/08/26 05:36:18;;;;;;;28.23;18.35;;;;;;;;;;5080409;28;20052;-80
2022/08/26 05:38:44;;;;;;;35.58;21.40;;;;;;;;;;5084659;28;20055;-82
2022/08/26 05:41:16;;;;;;;43.70;20.60;;;;;;;;;;5098466;28;20058;-81
2022/08/26 05:43:43;;;;;;;48.47;23.30;;;;;;;;;;5090200;28;20127;-81
2022/08/26 05:46:09;;;;;;;50.40;26.27;;;;;;;;;;5078317;28;20116;-83
2022/08/26 05:48:36;;;;;;;52.03;24.23;;;;;;;;;;5076286;28;20143;-80
2022/08/26 05:51:05;;;;;;;50.33;26.38;;;;;;;;;;5077758;28;20071;-82
2022/08/26 05:53:31;;;;;;;52.88;27.48;;;;;;;;;;5079054;28;20084;-83
2022/08/26 05:55:58;;;;;;;56.72;28.13;;;;;;;;;;5081433;28;20048;-81
2022/08/26 05:58:25;;;;;;;45.88;25.83;;;;;;;;;;5099959;28;20048;-81
2022/08/26 06:01:13;;;;;;;52.80;28.00;;;;;;;;;;5098712;28;20074;-83
2022/08/26 06:03:41;;;;;;;54.05;28.15;;;;;;;;;;5096711;28;20048;-81
2022/08/26 06:06:09;;;;;;;50.83;28.23;;;;;;;;;;5091320;28;20171;-81
2022/08/26 06:08:36;;;;;;;57.65;31.02;;;;;;;;;;5085217;28;20074;-82
2022/08/26 06:11:04;;;;;;;57.28;30.10;;;;;;;;;;5073323;28;20405;-81
2022/08/26 06:13:31;;;;;;;62.33;29.45;;;;;;;;;;5107487;28;20055;-81
2022/08/26 06:16:02;;;;;;;60.50;28.83;;;;;;;;;;5107312;28;20056;-83
2022/08/26 06:18:33;;;;;;;52.85;27.40;;;;;;;;;;5105453;28;20500;-81
2022/08/26 06:21:11;;;;;;;54.55;27.42;;;;;;;;;;5106392;28;20120;-81
2022/08/26 06:26:24;;;;;;;54.67;25.80;;;;;;;;;;5114790;28;20039;-83
2022/08/26 06:28:51;;;;;;;41.17;24.67;;;;;;;;;;5106777;28;20133;-83
2022/08/26 06:31:17;;;;;;;57.95;25.63;;;;;;;;;;5103175;28;20044;-82
2022/08/26 06:33:44;;;;;;;46.35;24.85;;;;;;;;;;5101353;28;20119;-82
2022/08/26 06:36:21;;;;;;;43.83;23.95;;;;;;;;;;5102580;28;20059;-83
2022/08/26 06:38:49;;;;;;;45.28;22.60;;;;;;;;;;5104864;28;20143;-82
2022/08/26 06:41:16;;;;;;;40.97;22.20;;;;;;;;;;5076063;28;20067;-83
2022/08/26 06:43:43;;;;;;;42.00;20.88;;;;;;;;;;5102234;28;20048;-83
2022/08/26 06:46:10;;;;;;;41.80;20.83;;;;;;;;;;5102621;28;20055;-81
2022/08/26 06:48:38;;;;;;;36.67;21.42;;;;;;;;;;5100001;28;20044;-81
2022/08/26 06:51:06;;;;;;;40.50;20.40;;;;;;;;;;5101735;28;20051;-81
2022/08/26 06:53:32;;;;;;;40.40;19.77;;;;;;;;;;5102260;28;20048;-81
2022/08/26 06:56:01;;;;;;;36.92;19.05;;;;;;;;;;5089369;28;20048;-81
2022/08/26 06:58:27;;;;;;;38.60;19.15;;;;;;;;;;5102461;28;20325;-81
2022/08/26 07:00:54;;;;;;;38.30;18.23;;;;;;;;;;5102390;28;20357;-79
2022/08/26 07:03:25;;;;;;;42.63;19.40;;;;;;;;;;5103241;28;20074;-80
2022/08/26 07:06:00;;;;;;;44.47;18.63;;;;;;;;;;5101705;28;20409;-81
2022/08/26 07:08:26;;;;;;;40.63;17.83;;;;;;;;;;5084222;28;20047;-83
2022/08/26 07:10:53;;;;;;;33.83;17.88;;;;;;;;;;5102171;28;20044;-79
2022/08/26 07:13:21;;;;;;;40.25;17.55;;;;;;;;;;5092178;28;20098;-82
2022/08/26 07:15:56;;;;;;;32.22;16.73;;;;;;;;;;5107165;28;20078;-82
2022/08/26 07:18:28;;;;;;;32.88;16.52;;;;;;;;;;5089251;28;20052;-83
2022/08/26 07:20:54;;;;;;;34.15;16.73;;;;;;;;;;5104963;28;20107;-80
2022/08/26 07:23:21;;;;;;;35.13;16.52;;;;;;;;;;5106961;28;20097;-82
2022/08/26 07:25:48;;;;;;;38.55;16.75;;;;;;;;;;5107739;28;20067;-83
2022/08/26 07:28:14;;;;;;;30.88;15.57;;;;;;;;;;5108038;28;20574;-84
2022/08/26 07:30:41;;;;;;;35.10;16.55;;;;;;;;;;5108975;28;20040;-82
2022/08/26 07:33:08;;;;;;;41.85;16.27;;;;;;;;;;5114108;28;20151;-81
2022/08/26 07:35:37;;;;;;;36.10;15.85;;;;;;;;;;5107246;28;20074;-82
2022/08/26 07:38:03;;;;;;;29.17;14.30;;;;;;;;;;5107616;28;20044;-80
2022/08/26 07:40:33;;;;;;;33.42;14.90;;;;;;;;;;5107517;28;20079;-83
2022/08/26 07:42:59;;;;;;;33.50;14.98;;;;;;;;;;5105805;28;20393;-78
2022/08/26 07:45:26;;;;;;;36.60;14.30;;;;;;;;;;5105595;28;20068;-82
2022/08/26 07:47:53;;;;;;;27.35;13.60;;;;;;;;;;5095777;28;20336;-84
2022/08/26 07:50:21;;;;;;;25.98;14.07;;;;;;;;;;5096688;28;20122;-82
2022/08/26 07:53:07;;;;;;;36.25;13.18;;;;;;;;;;5097583;28;20043;-82
2022/08/26 07:55:36;;;;;;;30.83;12.85;;;;;;;;;;5098467;28;20036;-82
2022/08/26 07:58:03;;;;;;;40.25;13.10;;;;;;;;;;5083406;28;20048;-81
2022/08/26 08:00:32;;;;;;;34.17;14.25;;;;;;;;;;5105250;28;20066;-80
2022/08/26 08:02:59;;;;;;;26.63;12.10;;;;;;;;;;5103743;28;20070;-79
2022/08/26 08:05:26;;;;;;;28.13;11.85;;;;;;;;;;5103216;28;20047;-82
2022/08/26 08:08:00;;;;;;;27.10;12.00;;;;;;;;;;5105168;28;20071;-85
2022/08/26 08:10:46;;;;;;;26.30;11.90;;;;;;;;;;5103992;28;20469;-79
2022/08/26 08:13:14;;;;;;;28.95;10.25;;;;;;;;;;5101420;28;20073;-82
2022/08/26 08:15:40;;;;;;;31.42;10.80;;;;;;;;;;5103685;28;20048;-79
2022/08/26 08:18:07;;;;;;;28.13;10.05;;;;;;;;;;5083470;28;20562;-80
2022/08/26 08:20:41;;;;;;;28.33;10.90;;;;;;;;;;5099879;28;20051;-81
2022/08/26 08:23:24;;;;;;;32.20;10.30;;;;;;;;;;5073067;28;20137;-79
2022/08/26 08:25:59;;;;;;;23.92;9.50;;;;;;;;;;5074402;28;20044;-81
2022/08/26 08:28:25;;;;;;;24.17;9.43;;;;;;;;;;5077471;28;20113;-80
2022/08/26 08:30:52;;;;;;;31.20;9.95;;;;;;;;;;5078750;28;20044;-81
2022/08/26 08:33:18;;;;;;;32.63;9.60;;;;;;;;;;5078654;28;20056;-80
2022/08/26 08:35:45;;;;;;;38.90;10.55;;;;;;;;;;5080332;28;20151;-80
2022/08/26 08:38:11;;;;;;;36.33;9.40;;;;;;;;;;5079665;28;20056;-81
2022/08/26 08:40:40;;;;;;;32.63;9.57;;;;;;;;;;5084511;28;20122;-83
2022/08/26 08:43:13;;;;;;;22.65;9.50;;;;;;;;;;5088941;28;20044;-83
2022/08/26 08:45:48;;;;;;;30.83;9.23;;;;;;;;;;5071009;28;20078;-82
2022/08/26 08:48:18;;;;;;;32.13;9.60;;;;;;;;;;5086408;28;20084;-83
2022/08/26 08:50:46;;;;;;;29.23;9.43;;;;;;;;;;5088738;28;20048;-82
2022/08/26 08:53:22;;;;;;;31.48;9.05;;;;;;;;;;5087724;28;20090;-81
2022/08/26 08:56:04;;;;;;;30.02;9.07;;;;;;;;;;5084897;28;20082;-82
2022/08/26 08:58:42;;;;;;;32.30;9.70;;;;;;;;;;5072254;28;20055;-82
2022/08/26 09:01:12;;;;;;;34.35;9.57;;;;;;;;;;5089436;28;20041;-82
2022/08/26 09:03:42;;;;;;;30.85;8.93;;;;;;;;;;5091158;28;20036;-83
2022/08/26 09:06:15;;;;;;;30.65;8.60;;;;;;;;;;5095373;28;20037;-83
2022/08/26 09:08:43;;;;;;;33.25;8.73;;;;;;;;;;5095180;28;20033;-83
2022/08/26 09:11:10;;;;;;;24.50;8.55;;;;;;;;;;5090098;28;20041;-81
2022/08/26 09:13:37;;;;;;;29.90;8.00;;;;;;;;;;5085774;28;20049;-81
2022/08/26 09:16:09;;;;;;;27.30;7.70;;;;;;;;;;5087396;28;20057;-83
2022/08/26 09:18:55;;;;;;;23.40;8.18;;;;;;;;;;5084284;28;20047;-84
2022/08/26 09:21:22;;;;;;;27.00;7.78;;;;;;;;;;5086510;28;20059;-81
2022/08/26 09:23:51;;;;;;;21.05;7.43;;;;;;;;;;5088695;28;20036;-82
2022/08/26 09:26:26;;;;;;;21.05;7.97;;;;;;;;;;5091193;28;20094;-83
2022/08/26 09:29:04;;;;;;;25.58;8.15;;;;;;;;;;5088548;28;20094;-81
2022/08/26 09:31:34;;;;;;;27.77;7.93;;;;;;;;;;5082316;28;20040;-81
2022/08/26 09:34:05;;;;;;;27.33;8.40;;;;;;;;;;5080753;28;20048;-81
2022/08/26 09:36:34;;;;;;;22.27;7.38;;;;;;;;;;5083508;28;20044;-80
2022/08/26 09:39:30;;;;;;;27.23;7.80;;;;;;;;;;5082733;28;20049;-81
2022/08/26 09:42:11;;;;;;;24.20;8.10;;;;;;;;;;5072028;28;20060;-83
2022/08/26 09:44:55;;;;;;;24.30;7.38;;;;;;;;;;5082448;28;20048;-81
2022/08/26 09:47:25;;;;;;;22.90;7.28;;;;;;;;;;5079589;28;20045;-83
2022/08/26 09:49:58;;;;;;;28.15;7.15;;;;;;;;;;5086094;28;20116;-82
2022/08/26 09:52:26;;;;;;;28.40;6.80;;;;;;;;;;5101864;28;20040;-84
2022/08/26 09:55:13;;;;;;;22.15;7.43;;;;;;;;;;5097016;28;20080;-82
2022/08/26 09:57:49;;;;;;;18.25;6.80;;;;;;;;;;5099968;28;20074;-82
2022/08/26 10:00:22;;;;;;;24.33;7.18;;;;;;;;;;5105942;28;20152;-81
2022/08/26 10:02:50;;;;;;;27.85;7.05;;;;;;;;;;5093753;28;20067;-83
2022/08/26 10:05:28;;;;;;;17.00;7.18;;;;;;;;;;5097900;28;20106;-82
2022/08/26 10:07:57;;;;;;;21.15;7.72;;;;;;;;;;5079019;28;20062;-82
2022/08/26 10:10:25;;;;;;;24.95;7.68;;;;;;;;;;5085426;28;20085;-82
2022/08/26 10:12:57;;;;;;;31.25;7.85;;;;;;;;;;5098738;28;20052;-81
2022/08/26 10:15:26;;;;;;;31.05;6.50;;;;;;;;;;5100495;28;20072;-82
2022/08/26 10:18:02;;;;;;;29.63;7.13;;;;;;;;;;5093977;28;20048;-80
2022/08/26 10:20:33;;;;;;;42.35;8.13;;;;;;;;;;5082010;28;20093;-80
2022/08/26 10:23:11;;;;;;;26.73;7.00;;;;;;;;;;5095584;28;20056;-81
2022/08/26 10:25:44;;;;;;;27.35;7.93;;;;;;;;;;5096077;28;20055;-79
2022/08/26 10:28:30;;;;;;;26.33;7.40;;;;;;;;;;5093475;28;20127;-80
2022/08/26 10:31:17;;;;;;;29.23;7.05;;;;;;;;;;5095693;28;20375;-80
2022/08/26 10:33:45;;;;;;;22.58;7.22;;;;;;;;;;5099398;28;20044;-83
2022/08/26 10:36:48;;;;;;;22.50;6.22;;;;;;;;;;5098230;28;20055;-83
2022/08/26 10:39:25;;;;;;;20.63;6.22;;;;;;;;;;5078743;28;20048;-79
2022/08/26 10:41:54;;;;;;;18.33;6.07;;;;;;;;;;5077344;28;20044;-82
2022/08/26 10:44:22;;;;;;;32.80;7.95;;;;;;;;;;5078317;28;20563;-82
2022/08/26 10:47:00;;;;;;;36.92;8.88;;;;;;;;;;5059436;28;20109;-83
2022/08/26 10:49:28;;;;;;;32.45;10.75;;;;;;;;;;5079257;28;20044;-81
2022/08/26 10:51:55;;;;;;;30.55;8.82;;;;;;;;;;5082109;28;20074;-82
2022/08/26 10:54:28;;;;;;;30.58;9.38;;;;;;;;;;5083746;28;20048;-82
2022/08/26 10:57:10;;;;;;;30.23;8.38;;;;;;;;;;5088805;28;20082;-82
2022/08/26 10:59:47;;;;;;;33.28;9.77;;;;;;;;;;5107940;28;20078;-82
2022/08/26 11:02:19;;;;;;;27.23;8.95;;;;;;;;;;5107040;28;20086;-83
2022/08/26 11:04:55;;;;;;;22.73;7.78;;;;;;;;;;5110804;28;20066;-81
2022/08/26 11:07:35;;;;;;;23.50;7.53;;;;;;;;;;5113707;28;20043;-82
2022/08/26 11:10:06;;;;;;;31.02;8.00;;;;;;;;;;5113897;28;20024;-83
2022/08/26 11:12:35;;;;;;;23.05;6.70;;;;;;;;;;5111734;28;20051;-82
2022/08/26 11:15:13;;;;;;;19.45;6.05;;;;;;;;;;5113310;28;20040;-79
2022/08/26 11:17:46;;;;;;;11.93;5.75;;;;;;;;;;5111777;28;20048;-83
2022/08/26 11:20:22;;;;;;;21.08;7.00;;;;;;;;;;5111654;28;20085;-82
2022/08/26 11:22:49;;;;;;;22.52;6.57;;;;;;;;;;5113057;28;20060;-84
2022/08/26 11:25:16;;;;;;;16.98;6.95;;;;;;;;;;5112756;28;20531;-84
2022/08/26 11:27:45;;;;;;;19.95;6.95;;;;;;;;;;5112622;28;20070;-82
2022/08/26 11:30:11;;;;;;;19.02;7.63;;;;;;;;;;5095974;28;20045;-81
2022/08/26 11:32:38;;;;;;;16.50;7.18;;;;;;;;;;5075082;28;20112;-81
2022/08/26 11:35:07;;;;;;;23.42;7.90;;;;;;;;;;5076787;28;20342;-82
2022/08/26 11:37:35;;;;;;;19.77;7.70;;;;;;;;;;5077075;28;20048;-81
2022/08/26 11:40:08;;;;;;;18.75;8.25;;;;;;;;;;5081020;28;20401;-82
2022/08/26 11:42:39;;;;;;;16.88;6.88;;;;;;;;;;5090214;28;20048;-84
2022/08/26 11:45:30;;;;;;;22.88;7.30;;;;;;;;;;5095884;28;20055;-83
2022/08/26 11:47:56;;;;;;;24.17;7.78;;;;;;;;;;5112456;28;20078;-83
2022/08/26 11:50:25;;;;;;;19.55;7.40;;;;;;;;;;5105449;28;20048;-80
2022/08/26 11:53:05;;;;;;;18.95;7.53;;;;;;;;;;5102667;28;20125;-81
2022/08/26 11:55:34;;;;;;;15.88;7.65;;;;;;;;;;5096351;28;20123;-82
2022/08/26 11:58:03;;;;;;;24.05;8.32;;;;;;;;;;5099972;28;20047;-81
2022/08/26 12:00:45;;;;;;;17.52;7.03;;;;;;;;;;5105996;28;20048;-82
2022/08/26 12:03:16;;;;;;;19.95;8.25;;;;;;;;;;5103561;28;20083;-82
2022/08/26 12:05:44;;;;;;;15.00;5.78;;;;;;;;;;5104248;28;20523;-81
2022/08/26 12:08:13;;;;;;;21.08;6.55;;;;;;;;;;5098579;28;20089;-82
2022/08/26 12:10:40;;;;;;;13.82;6.28;;;;;;;;;;5094767;28;20048;-80
2022/08/26 12:13:16;;;;;;;13.05;5.65;;;;;;;;;;5078637;28;20059;-81
2022/08/26 12:15:50;;;;;;;14.15;6.63;;;;;;;;;;5081453;28;20045;-81
2022/08/26 12:18:22;;;;;;;16.17;5.95;;;;;;;;;;5086539;28;20053;-81
2022/08/26 12:20:56;;;;;;;24.17;6.28;;;;;;;;;;5085409;28;20052;-78
2022/08/26 12:23:43;;;;;;;15.18;6.45;;;;;;;;;;5078440;28;20083;-81
2022/08/26 12:26:17;;;;;;;19.27;6.65;;;;;;;;;;5077961;28;20053;-79
2022/08/26 12:28:44;;;;;;;14.15;6.22;;;;;;;;;;5076635;28;20048;-81
2022/08/26 12:31:18;;;;;;;15.30;6.60;;;;;;;;;;5076296;28;20044;-80
2022/08/26 12:33:46;;;;;;;17.85;6.78;;;;;;;;;;5072699;28;20151;-81
2022/08/26 12:36:19;;;;;;;17.20;6.38;;;;;;;;;;5073714;28;20072;-80
2022/08/26 12:38:47;;;;;;;22.95;7.35;;;;;;;;;;5073070;28;20214;-80
2022/08/26 12:41:33;;;;;;;19.13;6.68;;;;;;;;;;5073447;28;20109;-80
2022/08/26 12:44:00;;;;;;;27.67;7.03;;;;;;;;;;5072590;28;20505;-80
2022/08/26 12:46:27;;;;;;;17.92;7.15;;;;;;;;;;5072606;28;20071;-80
2022/08/26 12:48:59;;;;;;;14.25;5.95;;;;;;;;;;5070522;28;20101;-80
2022/08/26 12:51:30;;;;;;;19.88;6.32;;;;;;;;;;5071343;28;20090;-79
2022/08/26 12:53:57;;;;;;;13.98;6.72;;;;;;;;;;5081594;28;20048;-80
2022/08/26 12:56:34;;;;;;;16.55;6.78;;;;;;;;;;5077083;28;20144;-80
2022/08/26 12:59:03;;;;;;;18.70;6.53;;;;;;;;;;5080364;28;20129;-79
2022/08/26 13:01:56;;;;;;;12.40;6.97;;;;;;;;;;5062107;28;20055;-78
2022/08/26 13:04:38;;;;;;;16.65;6.85;;;;;;;;;;5075810;28;20054;-80
2022/08/26 13:07:11;;;;;;;16.40;7.10;;;;;;;;;;5081162;28;20048;-80
2022/08/26 13:09:38;;;;;;;19.00;7.38;;;;;;;;;;5082431;28;20048;-82
2022/08/26 13:12:04;;;;;;;18.45;7.00;;;;;;;;;;5085129;28;20176;-81
2022/08/26 13:14:31;;;;;;;18.40;7.88;;;;;;;;;;5084604;28;20040;-82
2022/08/26 13:17:00;;;;;;;20.30;7.82;;;;;;;;;;5083060;28;20044;-80
2022/08/26 13:19:28;;;;;;;18.73;7.05;;;;;;;;;;5085690;28;20044;-80
2022/08/26 13:21:56;;;;;;;16.48;6.72;;;;;;;;;;5088613;28;20114;-81
2022/08/26 13:24:31;;;;;;;14.82;7.80;;;;;;;;;;5091469;28;20049;-82
2022/08/26 13:26:58;;;;;;;;;;;;;;;;;;5088846;28;20040;-80
2022/08/26 13:29:24;;;;;;;23.88;7.75;;;;;;;;;;5086044;28;19921;-80
2022/08/26 13:31:51;;;;;;;23.13;7.60;;;;;;;;;;5077208;28;20063;-82
2022/08/26 13:34:18;;;;;;;15.63;7.57;;;;;;;;;;5078540;28;20051;-80
2022/08/26 13:36:45;;;;;;;19.98;7.10;;;;;;;;;;5077031;28;20044;-80
2022/08/26 13:39:12;;;;;;;15.20;6.68;;;;;;;;;;5082411;28;20052;-81
2022/08/26 13:41:39;;;;;;;20.45;7.65;;;;;;;;;;5080239;28;20060;-80
2022/08/26 13:44:05;;;;;;;16.55;7.43;;;;;;;;;;5079749;28;20102;-82
2022/08/26 13:46:31;;;;;;;15.48;6.97;;;;;;;;;;5085444;28;20089;-80
2022/08/26 13:49:02;;;;;;;14.48;6.53;;;;;;;;;;5086822;28;20055;-80
2022/08/26 13:51:29;;;;;;;19.40;7.43;;;;;;;;;;5094501;28;20077;-79
2022/08/26 13:53:58;;;;;;;17.95;7.68;;;;;;;;;;5070829;28;20045;-80
2022/08/26 13:56:26;;;;;;;25.33;8.10;;;;;;;;;;5078207;28;20044;-81
2022/08/26 13:58:52;;;;;;;18.58;8.63;;;;;;;;;;5077574;28;20048;-82
2022/08/26 14:01:19;;;;;;;29.60;9.07;;;;;;;;;;5077597;28;20073;-81
2022/08/26 14:03:45;;;;;;;20.25;8.77;;;;;;;;;;5081059;28;20547;-80
2022/08/26 14:06:12;;;;;;;22.13;8.50;;;;;;;;;;5078034;28;20548;-79
2022/08/26 14:08:40;;;;;;;17.67;8.85;;;;;;;;;;5084898;28;20044;-83
2022/08/26 14:11:06;;;;;;;16.70;8.05;;;;;;;;;;5065895;28;20079;-81
2022/08/26 14:13:33;;;;;;;23.05;8.20;;;;;;;;;;5084216;28;20044;-82
2022/08/26 14:16:00;;;;;;;21.40;8.02;;;;;;;;;;5084481;28;20051;-80
2022/08/26 14:18:29;;;;;;;17.88;8.27;;;;;;;;;;5082055;28;20052;-79
2022/08/26 14:20:55;;;;;;;19.23;7.60;;;;;;;;;;5084935;28;20034;-81
2022/08/26 14:23:22;;;;;;;22.23;7.55;;;;;;;;;;5097015;28;20049;-82
2022/08/26 14:25:48;;;;;;;20.00;7.80;;;;;;;;;;5103137;28;20074;-82
2022/08/26 14:28:15;;;;;;;15.82;6.80;;;;;;;;;;5102109;28;20048;-84
2022/08/26 14:30:42;;;;;;;17.63;7.85;;;;;;;;;;5100156;28;20697;-81
2022/08/26 14:33:10;;;;;;;17.52;8.32;;;;;;;;;;5102978;28;20081;-81
2022/08/26 14:35:40;;;;;;;20.65;8.15;;;;;;;;;;5094014;28;20055;-81
2022/08/26 14:38:15;;;;;;;16.15;8.13;;;;;;;;;;5091633;28;20060;-84
2022/08/26 14:40:43;;;;;;;17.63;7.70;;;;;;;;;;5090400;28;20536;-81
2022/08/26 14:43:12;;;;;;;22.48;7.90;;;;;;;;;;5089849;28;20158;-82